www.cux-wetter.de
Wetterdaten: Freitag, 16.01.2009
Datum Zeit Temp. A. Feuchte A. Luftdruck Regen Wind Richtung Richtung Sonnenschein Solar Taupunkt Windchill Windben
16.01.2009 00:05 1,1 C 96 % 1023,5 hPa 0,0 l/m 16,6 km/h (3 Bft) S-SO 160 0 min 0 W/m 0,5 C -6,5 C 16,6 km/h (3 Bft)
16.01.2009 00:09 1,1 C 97 % 1023,5 hPa 0,0 l/m 14,3 km/h (3 Bft) S 170 0 min 0 W/m 0,7 C -5,2 C 14,3 km/h (3 Bft)
16.01.2009 00:14 1,2 C 97 % 1023,5 hPa 0,0 l/m 14,3 km/h (3 Bft) S 170 0 min 0 W/m 0,8 C -5,1 C 14,3 km/h (3 Bft)
16.01.2009 00:20 1,1 C 97 % 1022,5 hPa 0,0 l/m 17,3 km/h (3 Bft) S-SO 160 0 min 0 W/m 0,7 C -6,9 C 17,3 km/h (3 Bft)
16.01.2009 00:25 1,1 C 97 % 1022,5 hPa 0,0 l/m 13,6 km/h (3 Bft) S-SO 165 0 min 0 W/m 0,7 C -4,8 C 13,6 km/h (3 Bft)
16.01.2009 00:29 1,2 C 97 % 1022,5 hPa 0,0 l/m 16,4 km/h (3 Bft) S-SO 165 0 min 0 W/m 0,8 C -6,3 C 16,4 km/h (3 Bft)
16.01.2009 00:34 1,2 C 97 % 1022,5 hPa 0,0 l/m 18,3 km/h (3 Bft) S-SO 165 0 min 0 W/m 0,8 C -7,3 C 18,3 km/h (3 Bft)
16.01.2009 00:39 1,2 C 97 % 1022,5 hPa 0,0 l/m 10,9 km/h (2 Bft) S-SO 160 0 min 0 W/m 0,8 C -2,8 C 10,9 km/h (2 Bft)
16.01.2009 00:44 1,2 C 97 % 1022,5 hPa 0,0 l/m 14,6 km/h (3 Bft) S 175 0 min 0 W/m 0,8 C -5,3 C 14,6 km/h (3 Bft)
16.01.2009 00:49 1,2 C 97 % 1022,5 hPa 0,0 l/m 16,1 km/h (3 Bft) S-SO 160 0 min 0 W/m 0,8 C -6,1 C 16,1 km/h (3 Bft)
16.01.2009 00:54 1,2 C 97 % 1022,5 hPa 0,0 l/m 11,3 km/h (2 Bft) S-SO 160 0 min 0 W/m 0,8 C -3,1 C 11,3 km/h (2 Bft)
16.01.2009 00:59 1,2 C 97 % 1022,5 hPa 0,0 l/m 8,7 km/h (2 Bft) S 175 0 min 0 W/m 0,8 C -1,0 C 8,7 km/h (2 Bft)
16.01.2009 01:05 1,2 C 97 % 1022,5 hPa 0,0 l/m 10,5 km/h (2 Bft) S-SO 155 0 min 0 W/m 0,8 C -2,5 C 10,5 km/h (2 Bft)
16.01.2009 01:09 1,2 C 97 % 1022,5 hPa 0,0 l/m 11,0 km/h (2 Bft) S 170 0 min 0 W/m 0,8 C -2,9 C 11,0 km/h (2 Bft)
16.01.2009 01:14 1,2 C 97 % 1022,5 hPa 0,0 l/m 12,7 km/h (3 Bft) S-SO 155 0 min 0 W/m 0,8 C -4,1 C 12,7 km/h (3 Bft)
16.01.2009 01:19 1,2 C 97 % 1022,5 hPa 0,0 l/m 11,1 km/h (2 Bft) SO 135 0 min 0 W/m 0,8 C -3,0 C 11,1 km/h (2 Bft)
16.01.2009 01:24 1,3 C 97 % 1022,5 hPa 0,0 l/m 8,7 km/h (2 Bft) SO 135 0 min 0 W/m 0,9 C -0,9 C 8,7 km/h (2 Bft)
16.01.2009 01:30 1,3 C 97 % 1022,5 hPa 0,0 l/m 8,9 km/h (2 Bft) SO 135 0 min 0 W/m 0,9 C -1,1 C 8,9 km/h (2 Bft)
16.01.2009 01:35 1,3 C 97 % 1022,5 hPa 0,0 l/m 11,3 km/h (2 Bft) SO 145 0 min 0 W/m 0,9 C -3,0 C 11,3 km/h (2 Bft)
16.01.2009 01:39 1,4 C 97 % 1022,5 hPa 0,0 l/m 10,5 km/h (2 Bft) S-SO 150 0 min 0 W/m 1,0 C -2,3 C 10,5 km/h (2 Bft)
16.01.2009 01:44 1,5 C 97 % 1022,5 hPa 0,0 l/m 10,8 km/h (2 Bft) S-SO 155 0 min 0 W/m 1,1 C -2,4 C 10,8 km/h (2 Bft)
16.01.2009 01:49 1,5 C 97 % 1022,5 hPa 0,0 l/m 13,0 km/h (3 Bft) SO 145 0 min 0 W/m 1,1 C -3,9 C 13,0 km/h (3 Bft)
16.01.2009 01:54 1,5 C 97 % 1022,5 hPa 0,0 l/m 4,0 km/h (1 Bft) S-SO 155 0 min 0 W/m 1,1 C 1,5 C 4,0 km/h (1 Bft)
16.01.2009 01:59 1,5 C 97 % 1022,5 hPa 0,0 l/m 10,6 km/h (2 Bft) SO 140 0 min 0 W/m 1,1 C -2,3 C 10,6 km/h (2 Bft)
16.01.2009 02:04 1,5 C 97 % 1022,5 hPa 0,0 l/m 10,6 km/h (2 Bft) SO 140 0 min 0 W/m 1,1 C -2,3 C 10,6 km/h (2 Bft)
16.01.2009 02:09 1,5 C 97 % 1022,5 hPa 0,0 l/m 14,8 km/h (3 Bft) S 170 0 min 0 W/m 1,1 C -5,0 C 14,8 km/h (3 Bft)
16.01.2009 02:14 1,6 C 97 % 1022,5 hPa 0,0 l/m 17,8 km/h (3 Bft) S-SO 155 0 min 0 W/m 1,2 C -6,5 C 17,8 km/h (3 Bft)
16.01.2009 02:19 1,5 C 97 % 1022,5 hPa 0,0 l/m 12,6 km/h (3 Bft) SO 130 0 min 0 W/m 1,1 C -3,7 C 12,6 km/h (3 Bft)
16.01.2009 02:24 1,5 C 97 % 1022,5 hPa 0,0 l/m 12,0 km/h (2 Bft) S-SO 150 0 min 0 W/m 1,1 C -3,3 C 12,0 km/h (2 Bft)
16.01.2009 02:29 1,5 C 97 % 1022,5 hPa 0,0 l/m 12,7 km/h (3 Bft) SO 140 0 min 0 W/m 1,1 C -3,7 C 12,7 km/h (3 Bft)
16.01.2009 02:34 1,6 C 97 % 1022,5 hPa 0,0 l/m 12,0 km/h (2 Bft) SO 130 0 min 0 W/m 1,2 C -3,2 C 12,0 km/h (2 Bft)
16.01.2009 02:40 1,5 C 97 % 1022,5 hPa 0,0 l/m 12,8 km/h (3 Bft) SO 135 0 min 0 W/m 1,1 C -3,8 C 12,8 km/h (3 Bft)
16.01.2009 02:45 1,5 C 97 % 1022,5 hPa 0,0 l/m 12,8 km/h (3 Bft) SO 140 0 min 0 W/m 1,1 C -3,8 C 12,8 km/h (3 Bft)
16.01.2009 02:49 1,5 C 97 % 1022,5 hPa 0,0 l/m 14,1 km/h (3 Bft) SO 125 0 min 0 W/m 1,1 C -4,6 C 14,1 km/h (3 Bft)
16.01.2009 02:54 1,5 C 97 % 1022,5 hPa 0,0 l/m 15,2 km/h (3 Bft) SO 130 0 min 0 W/m 1,1 C -5,3 C 15,2 km/h (3 Bft)
16.01.2009 02:59 1,5 C 97 % 1022,5 hPa 0,0 l/m 10,8 km/h (2 Bft) SO 145 0 min 0 W/m 1,1 C -2,4 C 10,8 km/h (2 Bft)
16.01.2009 03:04 1,4 C 97 % 1022,5 hPa 0,0 l/m 11,6 km/h (2 Bft) SO 145 0 min 0 W/m 1,0 C -3,1 C 11,6 km/h (2 Bft)
16.01.2009 03:10 1,4 C 97 % 1022,5 hPa 0,0 l/m 12,5 km/h (2 Bft) O-SO 120 0 min 0 W/m 1,0 C -3,7 C 12,5 km/h (2 Bft)
16.01.2009 03:14 1,4 C 97 % 1022,5 hPa 0,0 l/m 12,7 km/h (3 Bft) SO 125 0 min 0 W/m 1,0 C -3,9 C 12,7 km/h (3 Bft)
16.01.2009 03:19 1,4 C 97 % 1022,5 hPa 0,0 l/m 10,0 km/h (2 Bft) S 175 0 min 0 W/m 1,0 C -1,9 C 10,0 km/h (2 Bft)
16.01.2009 03:24 1,3 C 97 % 1022,5 hPa 0,0 l/m 15,1 km/h (3 Bft) SO 145 0 min 0 W/m 0,9 C -5,5 C 15,1 km/h (3 Bft)
16.01.2009 03:29 1,2 C 97 % 1022,5 hPa 0,0 l/m 16,3 km/h (3 Bft) SO 140 0 min 0 W/m 0,8 C -6,3 C 16,3 km/h (3 Bft)
16.01.2009 03:34 1,2 C 97 % 1022,5 hPa 0,0 l/m 14,9 km/h (3 Bft) S-SO 150 0 min 0 W/m 0,8 C -5,5 C 14,9 km/h (3 Bft)
16.01.2009 03:39 1,2 C 97 % 1022,5 hPa 0,0 l/m 22,6 km/h (4 Bft) SO 145 0 min 0 W/m 0,8 C -9,2 C 22,6 km/h (4 Bft)
16.01.2009 03:44 1,2 C 97 % 1022,5 hPa 0,0 l/m 11,3 km/h (2 Bft) S-SO 150 0 min 0 W/m 0,8 C -3,1 C 11,3 km/h (2 Bft)
16.01.2009 03:50 1,2 C 97 % 1022,5 hPa 0,0 l/m 17,5 km/h (3 Bft) S-SO 150 0 min 0 W/m 0,8 C -6,9 C 17,5 km/h (3 Bft)
16.01.2009 03:54 1,2 C 97 % 1022,5 hPa 0,0 l/m 14,2 km/h (3 Bft) SO 140 0 min 0 W/m 0,8 C -5,1 C 14,2 km/h (3 Bft)
16.01.2009 03:59 1,1 C 97 % 1022,5 hPa 0,0 l/m 14,5 km/h (3 Bft) S-SO 155 0 min 0 W/m 0,7 C -5,4 C 14,5 km/h (3 Bft)
16.01.2009 04:04 1,1 C 97 % 1022,5 hPa 0,0 l/m 17,6 km/h (3 Bft) S-SO 150 0 min 0 W/m 0,7 C -7,1 C 17,6 km/h (3 Bft)
16.01.2009 04:09 1,1 C 97 % 1022,5 hPa 0,0 l/m 17,3 km/h (3 Bft) SO 135 0 min 0 W/m 0,7 C -6,9 C 17,3 km/h (3 Bft)
16.01.2009 04:15 1,1 C 97 % 1022,5 hPa 0,0 l/m 15,0 km/h (3 Bft) S-SO 155 0 min 0 W/m 0,7 C -5,6 C 15,0 km/h (3 Bft)
16.01.2009 04:19 1,1 C 97 % 1022,5 hPa 0,0 l/m 17,1 km/h (3 Bft) S-SO 150 0 min 0 W/m 0,7 C -6,8 C 17,1 km/h (3 Bft)
16.01.2009 04:24 1,1 C 97 % 1022,5 hPa 0,0 l/m 12,3 km/h (2 Bft) S-SO 160 0 min 0 W/m 0,7 C -3,9 C 12,3 km/h (2 Bft)
16.01.2009 04:29 1,1 C 97 % 1022,5 hPa 0,0 l/m 27,5 km/h (5 Bft) S-SO 160 0 min 0 W/m 0,7 C -11,1 C 27,5 km/h (5 Bft)
16.01.2009 04:34 1,0 C 97 % 1022,5 hPa 0,0 l/m 24,8 km/h (4 Bft) S-SO 160 0 min 0 W/m 0,6 C -10,3 C 24,8 km/h (4 Bft)
16.01.2009 04:39 1,0 C 97 % 1022,5 hPa 0,0 l/m 12,1 km/h (2 Bft) S-SO 155 0 min 0 W/m 0,6 C -3,9 C 12,1 km/h (2 Bft)
16.01.2009 04:44 1,8 C 98 % 1022,5 hPa 0,0 l/m 17,5 km/h (3 Bft) SO 135 0 min 0 W/m 1,5 C -6,1 C 17,5 km/h (3 Bft)
16.01.2009 04:49 2,3 C 98 % 1022,5 hPa 0,0 l/m 19,3 km/h (3 Bft) S-SO 155 0 min 0 W/m 2,0 C -6,4 C 19,3 km/h (3 Bft)
16.01.2009 04:54 2,3 C 98 % 1022,5 hPa 0,0 l/m 17,0 km/h (3 Bft) S-SO 160 0 min 0 W/m 2,0 C -5,3 C 17,0 km/h (3 Bft)
16.01.2009 05:00 2,2 C 98 % 1022,5 hPa 0,0 l/m 19,7 km/h (3 Bft) SO 140 0 min 0 W/m 1,9 C -6,7 C 19,7 km/h (3 Bft)
16.01.2009 05:04 2,3 C 98 % 1022,5 hPa 0,0 l/m 10,1 km/h (2 Bft) SO 135 0 min 0 W/m 2,0 C -1,0 C 10,1 km/h (2 Bft)
16.01.2009 05:09 2,5 C 97 % 1022,5 hPa 0,0 l/m 17,1 km/h (3 Bft) SO 140 0 min 0 W/m 2,1 C -5,1 C 17,1 km/h (3 Bft)
16.01.2009 05:14 2,4 C 97 % 1022,5 hPa 0,0 l/m 18,3 km/h (3 Bft) S-SO 150 0 min 0 W/m 2,0 C -5,8 C 18,3 km/h (3 Bft)
16.01.2009 05:20 2,5 C 97 % 1022,5 hPa 0,0 l/m 14,4 km/h (3 Bft) S-SO 150 0 min 0 W/m 2,1 C -3,6 C 14,4 km/h (3 Bft)
16.01.2009 05:25 2,6 C 97 % 1022,5 hPa 0,0 l/m 16,3 km/h (3 Bft) S-SO 150 0 min 0 W/m 2,2 C -4,5 C 16,3 km/h (3 Bft)
16.01.2009 05:29 2,6 C 96 % 1022,5 hPa 0,0 l/m 16,4 km/h (3 Bft) SO 145 0 min 0 W/m 2,0 C -4,6 C 16,4 km/h (3 Bft)
16.01.2009 05:34 2,5 C 96 % 1022,5 hPa 0,0 l/m 18,1 km/h (3 Bft) S-SO 155 0 min 0 W/m 1,9 C -5,5 C 18,1 km/h (3 Bft)
16.01.2009 05:39 2,5 C 96 % 1022,5 hPa 0,0 l/m 16,5 km/h (3 Bft) S-SO 160 0 min 0 W/m 1,9 C -4,8 C 16,5 km/h (3 Bft)
16.01.2009 05:44 2,4 C 95 % 1022,5 hPa 0,0 l/m 21,5 km/h (4 Bft) S-SO 160 0 min 0 W/m 1,7 C -7,2 C 21,5 km/h (4 Bft)
16.01.2009 05:49 2,4 C 95 % 1022,5 hPa 0,0 l/m 17,5 km/h (3 Bft) S-SO 155 0 min 0 W/m 1,7 C -5,4 C 17,5 km/h (3 Bft)
16.01.2009 05:54 2,4 C 95 % 1022,5 hPa 0,0 l/m 18,5 km/h (3 Bft) S-SO 160 0 min 0 W/m 1,7 C -5,9 C 18,5 km/h (3 Bft)
16.01.2009 05:59 2,3 C 95 % 1022,5 hPa 0,0 l/m 24,4 km/h (4 Bft) S-SO 165 0 min 0 W/m 1,6 C -8,4 C 24,4 km/h (4 Bft)
16.01.2009 06:05 2,4 C 95 % 1022,5 hPa 0,0 l/m 17,5 km/h (3 Bft) S-SO 165 0 min 0 W/m 1,7 C -5,4 C 17,5 km/h (3 Bft)
16.01.2009 06:09 2,4 C 94 % 1022,5 hPa 0,0 l/m 20,5 km/h (4 Bft) S 170 0 min 0 W/m 1,5 C -6,7 C 20,5 km/h (4 Bft)
16.01.2009 06:14 2,4 C 94 % 1022,5 hPa 0,0 l/m 19,4 km/h (3 Bft) S-SO 150 0 min 0 W/m 1,5 C -6,3 C 19,4 km/h (3 Bft)
16.01.2009 06:19 2,5 C 94 % 1022,5 hPa 0,0 l/m 20,5 km/h (4 Bft) S-SO 160 0 min 0 W/m 1,6 C -6,6 C 20,5 km/h (4 Bft)
16.01.2009 06:24 2,5 C 94 % 1022,5 hPa 0,0 l/m 18,3 km/h (3 Bft) S-SO 165 0 min 0 W/m 1,6 C -5,6 C 18,3 km/h (3 Bft)
16.01.2009 06:30 2,5 C 94 % 1022,5 hPa 0,0 l/m 14,3 km/h (3 Bft) S-SO 160 0 min 0 W/m 1,6 C -3,6 C 14,3 km/h (3 Bft)
16.01.2009 06:34 2,5 C 94 % 1022,5 hPa 0,0 l/m 25,0 km/h (4 Bft) S-SO 160 0 min 0 W/m 1,6 C -8,3 C 25,0 km/h (4 Bft)
16.01.2009 06:39 2,6 C 94 % 1022,5 hPa 0,0 l/m 17,0 km/h (3 Bft) SO 145 0 min 0 W/m 1,7 C -4,9 C 17,0 km/h (3 Bft)
16.01.2009 06:44 2,6 C 94 % 1022,5 hPa 0,0 l/m 25,0 km/h (4 Bft) S-SO 160 0 min 0 W/m 1,7 C -8,2 C 25,0 km/h (4 Bft)
16.01.2009 06:49 2,5 C 94 % 1022,5 hPa 0,0 l/m 17,1 km/h (3 Bft) S 170 0 min 0 W/m 1,6 C -5,1 C 17,1 km/h (3 Bft)
16.01.2009 06:54 2,6 C 94 % 1022,5 hPa 0,0 l/m 19,8 km/h (3 Bft) S 180 0 min 0 W/m 1,7 C -6,2 C 19,8 km/h (3 Bft)
16.01.2009 06:59 2,7 C 94 % 1022,5 hPa 0,0 l/m 18,6 km/h (3 Bft) S-SO 150 0 min 0 W/m 1,8 C -5,5 C 18,6 km/h (3 Bft)
16.01.2009 07:04 2,5 C 93 % 1022,5 hPa 0,0 l/m 23,8 km/h (4 Bft) S-SO 165 0 min 0 W/m 1,5 C -7,9 C 23,8 km/h (4 Bft)
16.01.2009 07:09 2,4 C 93 % 1022,5 hPa 0,0 l/m 20,4 km/h (4 Bft) S-SO 160 0 min 0 W/m 1,4 C -6,7 C 20,4 km/h (4 Bft)
16.01.2009 07:14 2,4 C 94 % 1022,5 hPa 0,0 l/m 16,2 km/h (3 Bft) S-SO 160 0 min 0 W/m 1,5 C -4,7 C 16,2 km/h (3 Bft)
16.01.2009 07:19 2,3 C 94 % 1022,5 hPa 0,0 l/m 22,4 km/h (4 Bft) S-SO 165 0 min 0 W/m 1,4 C -7,6 C 22,4 km/h (4 Bft)
16.01.2009 07:24 2,3 C 93 % 1022,5 hPa 0,0 l/m 16,3 km/h (3 Bft) S-SO 160 0 min 0 W/m 1,3 C -4,9 C 16,3 km/h (3 Bft)
16.01.2009 07:29 2,3 C 93 % 1022,5 hPa 0,0 l/m 19,7 km/h (3 Bft) SO 145 0 min 0 W/m 1,3 C -6,5 C 19,7 km/h (3 Bft)
16.01.2009 07:35 2,4 C 94 % 1022,5 hPa 0,0 l/m 20,7 km/h (4 Bft) S-SO 155 0 min 0 W/m 1,5 C -6,8 C 20,7 km/h (4 Bft)
16.01.2009 07:39 2,4 C 94 % 1022,5 hPa 0,0 l/m 22,5 km/h (4 Bft) S-SO 155 0 min 0 W/m 1,5 C -7,6 C 22,5 km/h (4 Bft)
16.01.2009 07:44 2,3 C 93 % 1022,5 hPa 0,0 l/m 17,5 km/h (3 Bft) S-SO 160 0 min 0 W/m 1,3 C -5,5 C 17,5 km/h (3 Bft)
16.01.2009 07:49 2,3 C 93 % 1022,5 hPa 0,0 l/m 27,1 km/h (5 Bft) S-SO 165 0 min 0 W/m 1,3 C -9,3 C 27,1 km/h (5 Bft)
16.01.2009 07:54 2,2 C 93 % 1022,5 hPa 0,0 l/m 20,9 km/h (4 Bft) S 170 0 min 0 W/m 1,2 C -7,2 C 20,9 km/h (4 Bft)
16.01.2009 07:59 2,2 C 93 % 1022,5 hPa 0,0 l/m 19,7 km/h (3 Bft) S-SO 165 0 min 0 W/m 1,2 C -6,7 C 19,7 km/h (3 Bft)
16.01.2009 08:04 2,3 C 93 % 1022,5 hPa 0,0 l/m 18,9 km/h (3 Bft) S 175 0 min 0 W/m 1,3 C -6,2 C 18,9 km/h (3 Bft)
16.01.2009 08:09 2,3 C 93 % 1022,5 hPa 0,0 l/m 23,3 km/h (4 Bft) S-SO 160 0 min 0 W/m 1,3 C -8,0 C 23,3 km/h (4 Bft)
16.01.2009 08:14 2,3 C 93 % 1022,5 hPa 0,0 l/m 20,1 km/h (4 Bft) S 170 0 min 0 W/m 1,3 C -6,7 C 20,1 km/h (4 Bft)
16.01.2009 08:19 2,3 C 93 % 1022,5 hPa 0,0 l/m 21,6 km/h (4 Bft) S-SO 155 0 min 0 W/m 1,3 C -7,3 C 21,6 km/h (4 Bft)
16.01.2009 08:24 2,3 C 93 % 1022,5 hPa 0,0 l/m 29,6 km/h (5 Bft) S-SO 160 0 min 0 W/m 1,3 C -10,1 C 29,6 km/h (5 Bft)
16.01.2009 08:29 2,3 C 93 % 1022,5 hPa 0,0 l/m 29,3 km/h (5 Bft) S-SO 160 0 min 0 W/m 1,3 C -10,0 C 29,3 km/h (5 Bft)
16.01.2009 08:35 2,3 C 92 % 1022,5 hPa 0,0 l/m 33,2 km/h (5 Bft) S-SO 160 0 min 0 W/m 1,1 C -11,0 C 33,2 km/h (5 Bft)
16.01.2009 08:39 2,3 C 92 % 1022,5 hPa 0,0 l/m 25,0 km/h (4 Bft) S-SO 160 0 min 0 W/m 1,1 C -8,6 C 25,0 km/h (4 Bft)
16.01.2009 08:44 2,3 C 92 % 1022,5 hPa 0,0 l/m 25,5 km/h (4 Bft) S-SO 160 0 min 0 W/m 1,1 C -8,8 C 25,5 km/h (4 Bft)
16.01.2009 08:49 2,3 C 92 % 1022,5 hPa 0,0 l/m 26,2 km/h (4 Bft) S-SO 150 0 min 0 W/m 1,1 C -9,0 C 26,2 km/h (4 Bft)
16.01.2009 08:54 2,5 C 93 % 1022,5 hPa 0,0 l/m 27,1 km/h (5 Bft) S-SO 155 0 min 0 W/m 1,5 C -9,0 C 27,1 km/h (5 Bft)
16.01.2009 08:59 2,8 C 92 % 1022,5 hPa 0,0 l/m 22,3 km/h (4 Bft) S-SO 155 0 min 0 W/m 1,6 C -6,9 C 22,3 km/h (4 Bft)
16.01.2009 09:04 2,7 C 91 % 1022,5 hPa 0,0 l/m 26,3 km/h (4 Bft) S-SO 150 0 min 0 W/m 1,4 C -8,5 C 26,3 km/h (4 Bft)
16.01.2009 09:09 2,4 C 90 % 1022,5 hPa 0,0 l/m 32,8 km/h (5 Bft) S-SO 160 0 min 0 W/m 0,9 C -10,8 C 32,8 km/h (5 Bft)
16.01.2009 09:14 2,1 C 91 % 1022,5 hPa 0,0 l/m 26,0 km/h (4 Bft) S 170 0 min 0 W/m 0,8 C -9,2 C 26,0 km/h (4 Bft)
16.01.2009 09:19 1,9 C 91 % 1022,5 hPa 0,0 l/m 24,6 km/h (4 Bft) S-SO 155 0 min 0 W/m 0,6 C -9,0 C 24,6 km/h (4 Bft)
16.01.2009 09:24 1,9 C 92 % 1022,5 hPa 0,0 l/m 20,9 km/h (4 Bft) S-SO 160 0 min 0 W/m 0,7 C -7,6 C 20,9 km/h (4 Bft)
16.01.2009 09:29 1,9 C 92 % 1022,5 hPa 0,0 l/m 27,3 km/h (5 Bft) S 170 0 min 0 W/m 0,7 C -9,9 C 27,3 km/h (5 Bft)
16.01.2009 09:35 1,8 C 93 % 1022,5 hPa 0,0 l/m 14,0 km/h (3 Bft) S-SO 155 0 min 0 W/m 0,8 C -4,2 C 14,0 km/h (3 Bft)
16.01.2009 09:40 1,8 C 93 % 1022,5 hPa 0,0 l/m 28,3 km/h (5 Bft) S-SO 165 0 min 0 W/m 0,8 C -10,4 C 28,3 km/h (5 Bft)
16.01.2009 09:44 1,8 C 93 % 1022,5 hPa 0,0 l/m 20,6 km/h (4 Bft) S-SO 160 0 min 0 W/m 0,8 C -7,6 C 20,6 km/h (4 Bft)
16.01.2009 09:49 1,8 C 93 % 1022,5 hPa 0,0 l/m 24,1 km/h (4 Bft) S-SO 160 0 min 0 W/m 0,8 C -9,0 C 24,1 km/h (4 Bft)
16.01.2009 09:54 1,8 C 93 % 1022,5 hPa 0,0 l/m 20,5 km/h (4 Bft) S-SO 155 0 min 0 W/m 0,8 C -7,5 C 20,5 km/h (4 Bft)
16.01.2009 09:59 1,8 C 93 % 1022,5 hPa 0,0 l/m 23,3 km/h (4 Bft) S-SO 160 0 min 0 W/m 0,8 C -8,7 C 23,3 km/h (4 Bft)
16.01.2009 10:04 1,8 C 93 % 1022,5 hPa 0,0 l/m 19,3 km/h (3 Bft) S-SO 160 0 min 0 W/m 0,8 C -7,0 C 19,3 km/h (3 Bft)
16.01.2009 10:09 1,9 C 93 % 1021,5 hPa 0,0 l/m 14,1 km/h (3 Bft) S-SO 155 0 min 0 W/m 0,9 C -4,2 C 14,1 km/h (3 Bft)
16.01.2009 10:14 1,9 C 93 % 1022,5 hPa 0,0 l/m 25,6 km/h (4 Bft) S-SO 160 0 min 0 W/m 0,9 C -9,4 C 25,6 km/h (4 Bft)
16.01.2009 10:19 1,9 C 93 % 1022,5 hPa 0,0 l/m 19,3 km/h (3 Bft) S-SO 150 0 min 0 W/m 0,9 C -6,9 C 19,3 km/h (3 Bft)
16.01.2009 10:24 1,9 C 93 % 1022,5 hPa 0,0 l/m 23,3 km/h (4 Bft) S-SO 150 0 min 0 W/m 0,9 C -8,5 C 23,3 km/h (4 Bft)
16.01.2009 10:29 1,9 C 93 % 1022,5 hPa 0,0 l/m 22,0 km/h (4 Bft) S-SO 155 0 min 0 W/m 0,9 C -8,0 C 22,0 km/h (4 Bft)
16.01.2009 10:35 2,0 C 93 % 1022,5 hPa 0,0 l/m 19,8 km/h (3 Bft) S-SO 150 0 min 0 W/m 1,0 C -7,0 C 19,8 km/h (3 Bft)
16.01.2009 10:39 2,0 C 93 % 1022,5 hPa 0,0 l/m 20,7 km/h (4 Bft) S-SO 160 0 min 0 W/m 1,0 C -7,3 C 20,7 km/h (4 Bft)
16.01.2009 10:44 2,0 C 93 % 1022,5 hPa 0,0 l/m 25,5 km/h (4 Bft) S-SO 150 0 min 0 W/m 1,0 C -9,2 C 25,5 km/h (4 Bft)
16.01.2009 10:49 2,0 C 93 % 1021,5 hPa 0,0 l/m 22,1 km/h (4 Bft) S 170 0 min 0 W/m 1,0 C -7,9 C 22,1 km/h (4 Bft)
16.01.2009 10:54 2,0 C 93 % 1022,5 hPa 0,0 l/m 14,0 km/h (3 Bft) S-SO 165 0 min 0 W/m 1,0 C -4,0 C 14,0 km/h (3 Bft)
16.01.2009 10:59 2,2 C 93 % 1021,5 hPa 0,0 l/m 19,8 km/h (3 Bft) S-SO 155 0 min 0 W/m 1,2 C -6,7 C 19,8 km/h (3 Bft)
16.01.2009 11:04 2,2 C 93 % 1021,5 hPa 0,0 l/m 28,0 km/h (5 Bft) S-SO 150 0 min 0 W/m 1,2 C -9,7 C 28,0 km/h (5 Bft)
16.01.2009 11:09 2,3 C 92 % 1021,5 hPa 0,0 l/m 22,3 km/h (4 Bft) S-SO 150 0 min 0 W/m 1,1 C -7,6 C 22,3 km/h (4 Bft)
16.01.2009 11:14 2,3 C 92 % 1021,5 hPa 0,0 l/m 27,7 km/h (5 Bft) S-SO 150 0 min 0 W/m 1,1 C -9,5 C 27,7 km/h (5 Bft)
16.01.2009 11:19 2,3 C 92 % 1021,5 hPa 0,0 l/m 20,1 km/h (4 Bft) S-SO 160 0 min 0 W/m 1,1 C -6,7 C 20,1 km/h (4 Bft)
16.01.2009 11:24 2,3 C 92 % 1021,5 hPa 0,0 l/m 25,4 km/h (4 Bft) SO 140 0 min 0 W/m 1,1 C -8,7 C 25,4 km/h (4 Bft)
16.01.2009 11:29 2,3 C 92 % 1021,5 hPa 0,0 l/m 17,8 km/h (3 Bft) S-SO 150 0 min 0 W/m 1,1 C -5,7 C 17,8 km/h (3 Bft)
16.01.2009 11:35 2,4 C 91 % 1021,5 hPa 0,0 l/m 19,8 km/h (3 Bft) S-SO 160 0 min 0 W/m 1,1 C -6,4 C 19,8 km/h (3 Bft)
16.01.2009 11:39 2,4 C 91 % 1021,5 hPa 0,0 l/m 18,9 km/h (3 Bft) SO 145 0 min 0 W/m 1,1 C -6,0 C 18,9 km/h (3 Bft)
16.01.2009 11:44 2,5 C 91 % 1021,5 hPa 0,0 l/m 18,0 km/h (3 Bft) S-SO 155 0 min 0 W/m 1,2 C -5,5 C 18,0 km/h (3 Bft)
16.01.2009 11:49 2,5 C 91 % 1021,5 hPa 0,0 l/m 22,5 km/h (4 Bft) SO 145 0 min 0 W/m 1,2 C -7,4 C 22,5 km/h (4 Bft)
16.01.2009 11:54 2,5 C 91 % 1021,5 hPa 0,0 l/m 26,9 km/h (4 Bft) S-SO 160 0 min 0 W/m 1,2 C -9,0 C 26,9 km/h (4 Bft)
16.01.2009 11:59 2,6 C 90 % 1021,5 hPa 0,0 l/m 23,3 km/h (4 Bft) S-SO 150 0 min 0 W/m 1,1 C -7,6 C 23,3 km/h (4 Bft)
16.01.2009 12:04 2,7 C 90 % 1021,5 hPa 0,0 l/m 22,1 km/h (4 Bft) S-SO 160 0 min 0 W/m 1,2 C -7,0 C 22,1 km/h (4 Bft)
16.01.2009 12:09 2,7 C 90 % 1021,5 hPa 0,0 l/m 20,6 km/h (4 Bft) S-SO 150 0 min 0 W/m 1,2 C -6,4 C 20,6 km/h (4 Bft)
16.01.2009 12:14 2,7 C 90 % 1021,5 hPa 0,0 l/m 19,6 km/h (3 Bft) S-SO 155 0 min 0 W/m 1,2 C -6,0 C 19,6 km/h (3 Bft)
16.01.2009 12:19 2,7 C 90 % 1021,5 hPa 0,0 l/m 22,1 km/h (4 Bft) S-SO 165 0 min 0 W/m 1,2 C -7,0 C 22,1 km/h (4 Bft)
16.01.2009 12:24 2,7 C 89 % 1020,5 hPa 0,0 l/m 27,9 km/h (5 Bft) S-SO 165 0 min 0 W/m 1,1 C -9,0 C 27,9 km/h (5 Bft)
16.01.2009 12:29 2,7 C 89 % 1020,5 hPa 0,0 l/m 27,5 km/h (5 Bft) S-SO 160 0 min 0 W/m 1,1 C -8,9 C 27,5 km/h (5 Bft)
16.01.2009 12:35 2,7 C 89 % 1020,5 hPa 0,0 l/m 24,5 km/h (4 Bft) S 170 0 min 0 W/m 1,1 C -7,9 C 24,5 km/h (4 Bft)
16.01.2009 12:39 2,7 C 88 % 1020,5 hPa 0,0 l/m 29,9 km/h (5 Bft) S-SO 165 0 min 0 W/m 0,9 C -9,6 C 29,9 km/h (5 Bft)
16.01.2009 12:44 2,7 C 88 % 1020,5 hPa 0,0 l/m 29,5 km/h (5 Bft) S-SO 155 0 min 0 W/m 0,9 C -9,5 C 29,5 km/h (5 Bft)
16.01.2009 12:49 2,7 C 88 % 1020,5 hPa 0,0 l/m 37,2 km/h (5 Bft) S-SO 160 0 min 0 W/m 0,9 C -11,4 C 37,2 km/h (5 Bft)
16.01.2009 12:54 2,8 C 88 % 1020,5 hPa 0,0 l/m 28,5 km/h (5 Bft) S-SO 160 0 min 0 W/m 1,0 C -9,0 C 28,5 km/h (5 Bft)
16.01.2009 12:59 2,8 C 88 % 1020,5 hPa 0,0 l/m 22,9 km/h (4 Bft) S-SO 150 0 min 0 W/m 1,0 C -7,2 C 22,9 km/h (4 Bft)
16.01.2009 13:04 2,8 C 87 % 1020,5 hPa 0,0 l/m 25,5 km/h (4 Bft) S-SO 155 0 min 0 W/m 0,9 C -8,1 C 25,5 km/h (4 Bft)
16.01.2009 13:09 2,8 C 87 % 1020,5 hPa 0,0 l/m 25,6 km/h (4 Bft) S-SO 155 0 min 0 W/m 0,9 C -8,1 C 25,6 km/h (4 Bft)
16.01.2009 13:14 2,8 C 87 % 1020,5 hPa 0,0 l/m 28,8 km/h (5 Bft) S-SO 150 0 min 0 W/m 0,9 C -9,1 C 28,8 km/h (5 Bft)
16.01.2009 13:19 2,9 C 87 % 1020,5 hPa 0,0 l/m 33,6 km/h (5 Bft) S-SO 160 0 min 0 W/m 1,0 C -10,3 C 33,6 km/h (5 Bft)
16.01.2009 13:24 2,9 C 87 % 1020,5 hPa 0,0 l/m 33,2 km/h (5 Bft) S-SO 155 0 min 0 W/m 1,0 C -10,2 C 33,2 km/h (5 Bft)
16.01.2009 13:30 2,9 C 87 % 1020,5 hPa 0,0 l/m 26,0 km/h (4 Bft) S-SO 150 0 min 0 W/m 1,0 C -8,1 C 26,0 km/h (4 Bft)
16.01.2009 13:34 2,8 C 86 % 1020,5 hPa 0,0 l/m 31,2 km/h (5 Bft) S-SO 150 0 min 0 W/m 0,7 C -9,8 C 31,2 km/h (5 Bft)
16.01.2009 13:39 2,8 C 87 % 1020,5 hPa 0,0 l/m 27,0 km/h (5 Bft) S-SO 150 0 min 0 W/m 0,9 C -8,6 C 27,0 km/h (5 Bft)
16.01.2009 13:44 2,8 C 87 % 1020,5 hPa 0,0 l/m 28,4 km/h (5 Bft) S-SO 155 0 min 0 W/m 0,9 C -9,0 C 28,4 km/h (5 Bft)
16.01.2009 13:49 2,8 C 87 % 1020,5 hPa 0,0 l/m 25,6 km/h (4 Bft) S-SO 155 0 min 0 W/m 0,9 C -8,1 C 25,6 km/h (4 Bft)
16.01.2009 13:54 2,8 C 87 % 1019,5 hPa 0,0 l/m 20,1 km/h (4 Bft) SO 145 0 min 0 W/m 0,9 C -6,1 C 20,1 km/h (4 Bft)
16.01.2009 13:59 2,8 C 87 % 1019,5 hPa 0,0 l/m 19,3 km/h (3 Bft) S-SO 150 0 min 0 W/m 0,9 C -5,7 C 19,3 km/h (3 Bft)
16.01.2009 14:05 2,9 C 87 % 1019,5 hPa 0,0 l/m 32,7 km/h (5 Bft) S-SO 165 0 min 0 W/m 1,0 C -10,0 C 32,7 km/h (5 Bft)
16.01.2009 14:09 2,9 C 87 % 1019,5 hPa 0,0 l/m 27,2 km/h (5 Bft) S-SO 155 0 min 0 W/m 1,0 C -8,5 C 27,2 km/h (5 Bft)
16.01.2009 14:14 2,8 C 87 % 1020,5 hPa 0,0 l/m 23,6 km/h (4 Bft) S-SO 150 0 min 0 W/m 0,9 C -7,4 C 23,6 km/h (4 Bft)
16.01.2009 14:19 2,9 C 87 % 1019,5 hPa 0,0 l/m 29,1 km/h (5 Bft) S 170 0 min 0 W/m 1,0 C -9,1 C 29,1 km/h (5 Bft)
16.01.2009 14:25 2,8 C 87 % 1019,5 hPa 0,0 l/m 17,6 km/h (3 Bft) S-SO 165 0 min 0 W/m 0,9 C -4,9 C 17,6 km/h (3 Bft)
16.01.2009 14:29 2,9 C 87 % 1019,5 hPa 0,0 l/m 29,7 km/h (5 Bft) SO 145 0 min 0 W/m 1,0 C -9,2 C 29,7 km/h (5 Bft)
16.01.2009 14:34 2,8 C 87 % 1019,5 hPa 0,0 l/m 21,9 km/h (4 Bft) S-SO 150 0 min 0 W/m 0,9 C -6,8 C 21,9 km/h (4 Bft)
16.01.2009 14:39 2,8 C 87 % 1019,5 hPa 0,0 l/m 31,5 km/h (5 Bft) S-SO 160 0 min 0 W/m 0,9 C -9,9 C 31,5 km/h (5 Bft)
16.01.2009 14:44 2,9 C 87 % 1019,5 hPa 0,0 l/m 23,7 km/h (4 Bft) S-SO 155 0 min 0 W/m 1,0 C -7,3 C 23,7 km/h (4 Bft)
16.01.2009 14:49 2,8 C 87 % 1019,5 hPa 0,0 l/m 24,6 km/h (4 Bft) S-SO 165 0 min 0 W/m 0,9 C -7,8 C 24,6 km/h (4 Bft)
16.01.2009 14:55 2,8 C 87 % 1019,5 hPa 0,0 l/m 27,1 km/h (5 Bft) S 170 0 min 0 W/m 0,9 C -8,6 C 27,1 km/h (5 Bft)
16.01.2009 15:00 2,8 C 87 % 1019,5 hPa 0,0 l/m 24,1 km/h (4 Bft) S-SO 160 0 min 0 W/m 0,9 C -7,6 C 24,1 km/h (4 Bft)
16.01.2009 15:04 2,7 C 87 % 1019,5 hPa 0,0 l/m 23,9 km/h (4 Bft) S-SO 165 0 min 0 W/m 0,8 C -7,7 C 23,9 km/h (4 Bft)
16.01.2009 15:09 2,7 C 87 % 1019,5 hPa 0,0 l/m 27,1 km/h (5 Bft) S 170 0 min 0 W/m 0,8 C -8,7 C 27,1 km/h (5 Bft)
16.01.2009 15:15 2,7 C 88 % 1019,5 hPa 0,0 l/m 28,9 km/h (5 Bft) S-SO 155 0 min 0 W/m 0,9 C -9,3 C 28,9 km/h (5 Bft)
16.01.2009 15:19 2,6 C 88 % 1019,5 hPa 0,0 l/m 29,7 km/h (5 Bft) S 175 0 min 0 W/m 0,8 C -9,7 C 29,7 km/h (5 Bft)
16.01.2009 15:24 2,6 C 88 % 1019,5 hPa 0,0 l/m 17,4 km/h (3 Bft) S 170 0 min 0 W/m 0,8 C -5,1 C 17,4 km/h (3 Bft)
16.01.2009 15:29 2,6 C 88 % 1019,5 hPa 0,0 l/m 28,5 km/h (5 Bft) S-SO 160 0 min 0 W/m 0,8 C -9,3 C 28,5 km/h (5 Bft)
16.01.2009 15:34 2,5 C 88 % 1019,5 hPa 0,0 l/m 27,0 km/h (5 Bft) S-SO 150 0 min 0 W/m 0,7 C -9,0 C 27,0 km/h (5 Bft)
16.01.2009 15:39 2,5 C 88 % 1019,5 hPa 0,0 l/m 22,5 km/h (4 Bft) S-SO 160 0 min 0 W/m 0,7 C -7,4 C 22,5 km/h (4 Bft)
16.01.2009 15:44 2,4 C 88 % 1019,5 hPa 0,0 l/m 24,8 km/h (4 Bft) S-SO 155 0 min 0 W/m 0,6 C -8,4 C 24,8 km/h (4 Bft)
16.01.2009 15:50 2,4 C 88 % 1019,5 hPa 0,0 l/m 24,4 km/h (4 Bft) S-SO 160 0 min 0 W/m 0,6 C -8,3 C 24,4 km/h (4 Bft)
16.01.2009 15:54 2,4 C 89 % 1019,5 hPa 0,0 l/m 23,8 km/h (4 Bft) S-SO 155 0 min 0 W/m 0,8 C -8,0 C 23,8 km/h (4 Bft)
16.01.2009 15:59 2,3 C 89 % 1019,5 hPa 0,0 l/m 18,9 km/h (3 Bft) S 170 0 min 0 W/m 0,7 C -6,2 C 18,9 km/h (3 Bft)
16.01.2009 16:04 2,3 C 89 % 1019,5 hPa 0,0 l/m 19,9 km/h (4 Bft) S-SO 150 0 min 0 W/m 0,7 C -6,6 C 19,9 km/h (4 Bft)
16.01.2009 16:10 2,1 C 89 % 1019,5 hPa 0,0 l/m 20,2 km/h (4 Bft) S-SO 155 0 min 0 W/m 0,5 C -7,0 C 20,2 km/h (4 Bft)
16.01.2009 16:14 2,1 C 89 % 1019,5 hPa 0,0 l/m 23,5 km/h (4 Bft) S-SO 155 0 min 0 W/m 0,5 C -8,3 C 23,5 km/h (4 Bft)
16.01.2009 16:19 2,0 C 89 % 1019,5 hPa 0,0 l/m 20,5 km/h (4 Bft) S-SO 150 0 min 0 W/m 0,4 C -7,3 C 20,5 km/h (4 Bft)
16.01.2009 16:24 1,9 C 89 % 1019,5 hPa 0,0 l/m 22,0 km/h (4 Bft) S-SO 155 0 min 0 W/m 0,3 C -8,0 C 22,0 km/h (4 Bft)
16.01.2009 16:29 1,9 C 90 % 1019,5 hPa 0,0 l/m 27,6 km/h (5 Bft) S-SO 160 0 min 0 W/m 0,4 C -10,0 C 27,6 km/h (5 Bft)
16.01.2009 16:34 1,9 C 90 % 1019,5 hPa 0,0 l/m 30,2 km/h (5 Bft) S-SO 155 0 min 0 W/m 0,4 C -10,8 C 30,2 km/h (5 Bft)
16.01.2009 16:39 1,8 C 90 % 1019,5 hPa 0,0 l/m 30,2 km/h (5 Bft) S-SO 155 0 min 0 W/m 0,3 C -10,9 C 30,2 km/h (5 Bft)
16.01.2009 16:45 1,7 C 90 % 1019,5 hPa 0,0 l/m 14,6 km/h (3 Bft) S-SO 160 0 min 0 W/m 0,2 C -4,7 C 14,6 km/h (3 Bft)
16.01.2009 16:49 1,7 C 90 % 1019,5 hPa 0,0 l/m 24,1 km/h (4 Bft) S-SO 160 0 min 0 W/m 0,2 C -9,1 C 24,1 km/h (4 Bft)
16.01.2009 16:54 1,7 C 90 % 1019,5 hPa 0,0 l/m 15,4 km/h (3 Bft) S-SO 160 0 min 0 W/m 0,2 C -5,1 C 15,4 km/h (3 Bft)
16.01.2009 16:59 1,6 C 91 % 1019,5 hPa 0,0 l/m 15,8 km/h (3 Bft) S-SO 155 0 min 0 W/m 0,3 C -5,5 C 15,8 km/h (3 Bft)
16.01.2009 17:04 1,5 C 91 % 1019,5 hPa 0,0 l/m 21,9 km/h (4 Bft) S-SO 155 0 min 0 W/m 0,2 C -8,5 C 21,9 km/h (4 Bft)
16.01.2009 17:09 1,5 C 91 % 1019,5 hPa 0,0 l/m 20,8 km/h (4 Bft) S-SO 165 0 min 0 W/m 0,2 C -8,0 C 20,8 km/h (4 Bft)
16.01.2009 17:14 1,5 C 91 % 1019,5 hPa 0,0 l/m 18,6 km/h (3 Bft) S-SO 165 0 min 0 W/m 0,2 C -7,0 C 18,6 km/h (3 Bft)
16.01.2009 17:19 1,4 C 91 % 1019,5 hPa 0,0 l/m 19,7 km/h (3 Bft) S 170 0 min 0 W/m 0,1 C -7,7 C 19,7 km/h (3 Bft)
16.01.2009 17:24 1,4 C 91 % 1019,5 hPa 0,0 l/m 16,1 km/h (3 Bft) S-SO 160 0 min 0 W/m 0,1 C -5,9 C 16,1 km/h (3 Bft)
16.01.2009 17:29 1,5 C 91 % 1019,5 hPa 0,0 l/m 19,1 km/h (3 Bft) S 175 0 min 0 W/m 0,2 C -7,3 C 19,1 km/h (3 Bft)
16.01.2009 17:35 1,4 C 92 % 1019,5 hPa 0,0 l/m 19,9 km/h (4 Bft) S 170 0 min 0 W/m 0,2 C -7,8 C 19,9 km/h (4 Bft)
16.01.2009 17:39 1,4 C 92 % 1019,5 hPa 0,0 l/m 23,8 km/h (4 Bft) S-SO 165 0 min 0 W/m 0,2 C -9,4 C 23,8 km/h (4 Bft)
16.01.2009 17:44 1,4 C 92 % 1019,5 hPa 0,0 l/m 21,0 km/h (4 Bft) S-SO 165 0 min 0 W/m 0,2 C -8,3 C 21,0 km/h (4 Bft)
16.01.2009 17:49 1,4 C 92 % 1019,5 hPa 0,0 l/m 20,2 km/h (4 Bft) S 170 0 min 0 W/m 0,2 C -7,9 C 20,2 km/h (4 Bft)
16.01.2009 17:54 1,3 C 92 % 1019,5 hPa 0,0 l/m 18,5 km/h (3 Bft) S 175 0 min 0 W/m 0,1 C -7,3 C 18,5 km/h (3 Bft)
16.01.2009 17:59 1,3 C 92 % 1019,5 hPa 0,0 l/m 15,9 km/h (3 Bft) S-SO 160 0 min 0 W/m 0,1 C -5,9 C 15,9 km/h (3 Bft)
16.01.2009 18:04 1,3 C 92 % 1019,5 hPa 0,0 l/m 30,1 km/h (5 Bft) S-SO 160 0 min 0 W/m 0,1 C -11,6 C 30,1 km/h (5 Bft)
16.01.2009 18:09 1,3 C 92 % 1019,5 hPa 0,0 l/m 16,1 km/h (3 Bft) S-SO 165 0 min 0 W/m 0,1 C -6,0 C 16,1 km/h (3 Bft)
16.01.2009 18:14 1,2 C 91 % 1019,5 hPa 0,0 l/m 19,4 km/h (3 Bft) S 170 0 min 0 W/m -0,1 C -7,8 C 19,4 km/h (3 Bft)
16.01.2009 18:19 1,2 C 91 % 1019,5 hPa 0,0 l/m 19,6 km/h (3 Bft) S 170 0 min 0 W/m -0,1 C -7,9 C 19,6 km/h (3 Bft)
16.01.2009 18:25 1,2 C 91 % 1019,5 hPa 0,0 l/m 18,8 km/h (3 Bft) S 175 0 min 0 W/m -0,1 C -7,5 C 18,8 km/h (3 Bft)
16.01.2009 18:30 1,2 C 91 % 1019,5 hPa 0,0 l/m 18,6 km/h (3 Bft) S-SO 165 0 min 0 W/m -0,1 C -7,4 C 18,6 km/h (3 Bft)
16.01.2009 18:34 1,2 C 92 % 1019,5 hPa 0,0 l/m 16,1 km/h (3 Bft) S 175 0 min 0 W/m 0,0 C -6,1 C 16,1 km/h (3 Bft)
16.01.2009 18:39 1,1 C 92 % 1019,5 hPa 0,0 l/m 21,6 km/h (4 Bft) S-SO 165 0 min 0 W/m -0,1 C -8,9 C 21,6 km/h (4 Bft)
16.01.2009 18:44 1,1 C 92 % 1019,5 hPa 0,0 l/m 18,1 km/h (3 Bft) S-SO 165 0 min 0 W/m -0,1 C -7,3 C 18,1 km/h (3 Bft)
16.01.2009 18:49 1,1 C 92 % 1019,5 hPa 0,0 l/m 18,1 km/h (3 Bft) S-SO 160 0 min 0 W/m -0,1 C -7,3 C 18,1 km/h (3 Bft)
16.01.2009 18:54 1,1 C 92 % 1019,5 hPa 0,0 l/m 17,1 km/h (3 Bft) S 170 0 min 0 W/m -0,1 C -6,8 C 17,1 km/h (3 Bft)
16.01.2009 19:00 1,1 C 92 % 1019,5 hPa 0,0 l/m 19,8 km/h (3 Bft) S 170 0 min 0 W/m -0,1 C -8,1 C 19,8 km/h (3 Bft)
16.01.2009 19:04 1,0 C 92 % 1019,5 hPa 0,0 l/m 17,1 km/h (3 Bft) S-SO 165 0 min 0 W/m -0,2 C -6,9 C 17,1 km/h (3 Bft)
16.01.2009 19:09 0,9 C 92 % 1019,5 hPa 0,0 l/m 20,8 km/h (4 Bft) S-SO 165 0 min 0 W/m -0,2 C -8,8 C 20,8 km/h (4 Bft)
16.01.2009 19:15 0,9 C 92 % 1019,5 hPa 0,0 l/m 17,5 km/h (3 Bft) S-SO 165 0 min 0 W/m -0,2 C -7,3 C 17,5 km/h (3 Bft)
16.01.2009 19:20 0,9 C 92 % 1019,5 hPa 0,0 l/m 21,2 km/h (4 Bft) S-SO 155 0 min 0 W/m -0,2 C -9,0 C 21,2 km/h (4 Bft)
16.01.2009 19:24 0,9 C 92 % 1019,5 hPa 0,0 l/m 15,3 km/h (3 Bft) S 170 0 min 0 W/m -0,2 C -6,1 C 15,3 km/h (3 Bft)
16.01.2009 19:29 0,9 C 92 % 1019,5 hPa 0,0 l/m 24,0 km/h (4 Bft) S-SO 160 0 min 0 W/m -0,2 C -10,1 C 24,0 km/h (4 Bft)
16.01.2009 19:34 0,9 C 92 % 1019,5 hPa 0,0 l/m 20,8 km/h (4 Bft) S-SO 165 0 min 0 W/m -0,2 C -8,8 C 20,8 km/h (4 Bft)
16.01.2009 19:39 0,9 C 92 % 1019,5 hPa 0,0 l/m 18,8 km/h (3 Bft) S 170 0 min 0 W/m -0,2 C -7,9 C 18,8 km/h (3 Bft)
16.01.2009 19:44 0,9 C 92 % 1019,5 hPa 0,0 l/m 25,0 km/h (4 Bft) S-SO 165 0 min 0 W/m -0,2 C -10,5 C 25,0 km/h (4 Bft)
16.01.2009 19:50 0,9 C 92 % 1019,5 hPa 0,0 l/m 22,3 km/h (4 Bft) S-SO 160 0 min 0 W/m -0,2 C -9,5 C 22,3 km/h (4 Bft)
16.01.2009 19:54 0,9 C 92 % 1019,5 hPa 0,0 l/m 20,4 km/h (4 Bft) S-SO 160 0 min 0 W/m -0,2 C -8,6 C 20,4 km/h (4 Bft)
16.01.2009 19:59 0,9 C 92 % 1019,5 hPa 0,0 l/m 21,3 km/h (4 Bft) S-SO 165 0 min 0 W/m -0,2 C -9,0 C 21,3 km/h (4 Bft)
16.01.2009 20:04 0,9 C 92 % 1019,5 hPa 0,0 l/m 24,8 km/h (4 Bft) S 170 0 min 0 W/m -0,2 C -10,4 C 24,8 km/h (4 Bft)
16.01.2009 20:09 0,8 C 92 % 1019,5 hPa 0,0 l/m 16,9 km/h (3 Bft) S-SO 165 0 min 0 W/m -0,3 C -7,1 C 16,9 km/h (3 Bft)
16.01.2009 20:14 0,8 C 92 % 1018,5 hPa 0,0 l/m 16,1 km/h (3 Bft) S 170 0 min 0 W/m -0,3 C -6,6 C 16,1 km/h (3 Bft)
16.01.2009 20:19 0,7 C 92 % 1018,5 hPa 0,0 l/m 28,8 km/h (5 Bft) S-SO 160 0 min 0 W/m -0,4 C -12,1 C 28,8 km/h (5 Bft)
16.01.2009 20:24 0,7 C 92 % 1018,5 hPa 0,0 l/m 22,8 km/h (4 Bft) S-SO 165 0 min 0 W/m -0,4 C -9,9 C 22,8 km/h (4 Bft)
16.01.2009 20:29 0,7 C 92 % 1018,5 hPa 0,0 l/m 17,3 km/h (3 Bft) S-SO 165 0 min 0 W/m -0,4 C -7,4 C 17,3 km/h (3 Bft)
16.01.2009 20:34 0,7 C 92 % 1018,5 hPa 0,0 l/m 14,7 km/h (3 Bft) S 170 0 min 0 W/m -0,4 C -6,0 C 14,7 km/h (3 Bft)
16.01.2009 20:40 0,7 C 92 % 1018,5 hPa 0,0 l/m 13,5 km/h (3 Bft) S 170 0 min 0 W/m -0,4 C -5,2 C 13,5 km/h (3 Bft)
16.01.2009 20:44 0,6 C 92 % 1018,5 hPa 0,0 l/m 17,6 km/h (3 Bft) S 175 0 min 0 W/m -0,5 C -7,7 C 17,6 km/h (3 Bft)
16.01.2009 20:49 0,7 C 92 % 1018,5 hPa 0,0 l/m 15,0 km/h (3 Bft) S-SO 165 0 min 0 W/m -0,4 C -6,1 C 15,0 km/h (3 Bft)
16.01.2009 20:54 0,7 C 92 % 1018,5 hPa 0,0 l/m 21,0 km/h (4 Bft) S-SO 165 0 min 0 W/m -0,4 C -9,2 C 21,0 km/h (4 Bft)
16.01.2009 20:59 0,7 C 92 % 1018,5 hPa 0,0 l/m 18,6 km/h (3 Bft) S-SO 155 0 min 0 W/m -0,4 C -8,1 C 18,6 km/h (3 Bft)
16.01.2009 21:04 0,7 C 93 % 1018,5 hPa 0,0 l/m 14,5 km/h (3 Bft) S-SO 165 0 min 0 W/m -0,3 C -5,8 C 14,5 km/h (3 Bft)
16.01.2009 21:09 0,7 C 93 % 1018,5 hPa 0,0 l/m 18,9 km/h (3 Bft) S-SO 165 0 min 0 W/m -0,3 C -8,2 C 18,9 km/h (3 Bft)
16.01.2009 21:14 0,7 C 92 % 1018,5 hPa 0,0 l/m 13,6 km/h (3 Bft) S-SO 165 0 min 0 W/m -0,4 C -5,3 C 13,6 km/h (3 Bft)
16.01.2009 21:19 0,7 C 92 % 1018,5 hPa 0,0 l/m 17,1 km/h (3 Bft) S 170 0 min 0 W/m -0,4 C -7,3 C 17,1 km/h (3 Bft)
16.01.2009 21:25 0,8 C 92 % 1018,5 hPa 0,0 l/m 18,7 km/h (3 Bft) S-SO 165 0 min 0 W/m -0,3 C -8,0 C 18,7 km/h (3 Bft)
16.01.2009 21:29 0,8 C 92 % 1018,5 hPa 0,0 l/m 19,9 km/h (4 Bft) S 170 0 min 0 W/m -0,3 C -8,6 C 19,9 km/h (4 Bft)
16.01.2009 21:34 0,8 C 92 % 1018,5 hPa 0,0 l/m 15,6 km/h (3 Bft) S-SO 165 0 min 0 W/m -0,3 C -6,4 C 15,6 km/h (3 Bft)
16.01.2009 21:39 0,8 C 92 % 1018,5 hPa 0,0 l/m 25,3 km/h (4 Bft) S 170 0 min 0 W/m -0,3 C -10,7 C 25,3 km/h (4 Bft)
16.01.2009 21:44 0,9 C 92 % 1018,5 hPa 0,0 l/m 16,3 km/h (3 Bft) S-SO 160 0 min 0 W/m -0,2 C -6,6 C 16,3 km/h (3 Bft)
16.01.2009 21:49 0,9 C 92 % 1018,5 hPa 0,0 l/m 15,3 km/h (3 Bft) S-SO 165 0 min 0 W/m -0,2 C -6,1 C 15,3 km/h (3 Bft)
16.01.2009 21:55 0,9 C 92 % 1018,5 hPa 0,0 l/m 17,5 km/h (3 Bft) S-SO 160 0 min 0 W/m -0,2 C -7,3 C 17,5 km/h (3 Bft)
16.01.2009 21:59 0,9 C 92 % 1018,5 hPa 0,0 l/m 17,5 km/h (3 Bft) S-SO 160 0 min 0 W/m -0,2 C -7,3 C 17,5 km/h (3 Bft)
16.01.2009 22:04 0,9 C 92 % 1018,5 hPa 0,0 l/m 12,2 km/h (2 Bft) S-SO 155 0 min 0 W/m -0,2 C -4,1 C 12,2 km/h (2 Bft)
16.01.2009 22:10 0,9 C 92 % 1018,5 hPa 0,0 l/m 13,5 km/h (3 Bft) S-SO 150 0 min 0 W/m -0,2 C -5,0 C 13,5 km/h (3 Bft)
16.01.2009 22:14 0,8 C 92 % 1018,5 hPa 0,0 l/m 20,6 km/h (4 Bft) S-SO 160 0 min 0 W/m -0,3 C -8,9 C 20,6 km/h (4 Bft)
16.01.2009 22:19 0,8 C 92 % 1018,5 hPa 0,0 l/m 19,4 km/h (3 Bft) S-SO 160 0 min 0 W/m -0,3 C -8,3 C 19,4 km/h (3 Bft)
16.01.2009 22:24 0,8 C 92 % 1018,5 hPa 0,0 l/m 19,4 km/h (3 Bft) S-SO 160 0 min 0 W/m -0,3 C -8,3 C 19,4 km/h (3 Bft)
16.01.2009 22:29 0,8 C 92 % 1018,5 hPa 0,0 l/m 17,3 km/h (3 Bft) S-SO 165 0 min 0 W/m -0,3 C -7,3 C 17,3 km/h (3 Bft)
16.01.2009 22:34 0,9 C 92 % 1018,5 hPa 0,0 l/m 18,5 km/h (3 Bft) S-SO 160 0 min 0 W/m -0,2 C -7,8 C 18,5 km/h (3 Bft)
16.01.2009 22:40 0,8 C 92 % 1018,5 hPa 0,0 l/m 11,2 km/h (2 Bft) S 170 0 min 0 W/m -0,3 C -3,5 C 11,2 km/h (2 Bft)
16.01.2009 22:45 0,7 C 92 % 1018,5 hPa 0,0 l/m 18,5 km/h (3 Bft) S 170 0 min 0 W/m -0,4 C -8,0 C 18,5 km/h (3 Bft)
16.01.2009 22:49 0,7 C 92 % 1018,5 hPa 0,0 l/m 17,6 km/h (3 Bft) S-SO 165 0 min 0 W/m -0,4 C -7,6 C 17,6 km/h (3 Bft)
16.01.2009 22:54 0,7 C 92 % 1018,5 hPa 0,0 l/m 18,1 km/h (3 Bft) S 170 0 min 0 W/m -0,4 C -7,8 C 18,1 km/h (3 Bft)
16.01.2009 22:59 0,7 C 92 % 1018,5 hPa 0,0 l/m 13,0 km/h (3 Bft) S 175 0 min 0 W/m -0,4 C -4,9 C 13,0 km/h (3 Bft)
16.01.2009 23:04 0,7 C 92 % 1018,5 hPa 0,0 l/m 22,5 km/h (4 Bft) S 175 0 min 0 W/m -0,4 C -9,8 C 22,5 km/h (4 Bft)
16.01.2009 23:09 0,7 C 92 % 1018,5 hPa 0,0 l/m 12,4 km/h (2 Bft) S 170 0 min 0 W/m -0,4 C -4,5 C 12,4 km/h (2 Bft)
16.01.2009 23:14 0,8 C 92 % 1018,5 hPa 0,0 l/m 15,0 km/h (3 Bft) S 170 0 min 0 W/m -0,3 C -6,0 C 15,0 km/h (3 Bft)
16.01.2009 23:19 0,8 C 92 % 1018,5 hPa 0,0 l/m 17,2 km/h (3 Bft) S-SO 160 0 min 0 W/m -0,3 C -7,2 C 17,2 km/h (3 Bft)
16.01.2009 23:25 0,8 C 92 % 1018,5 hPa 0,0 l/m 17,4 km/h (3 Bft) S 170 0 min 0 W/m -0,3 C -7,3 C 17,4 km/h (3 Bft)
16.01.2009 23:30 0,8 C 92 % 1018,5 hPa 0,0 l/m 18,6 km/h (3 Bft) S-SO 165 0 min 0 W/m -0,3 C -7,9 C 18,6 km/h (3 Bft)
16.01.2009 23:34 0,8 C 92 % 1018,5 hPa 0,0 l/m 16,7 km/h (3 Bft) S 170 0 min 0 W/m -0,3 C -7,0 C 16,7 km/h (3 Bft)
16.01.2009 23:39 0,8 C 92 % 1018,5 hPa 0,0 l/m 18,5 km/h (3 Bft) S-SO 165 0 min 0 W/m -0,3 C -7,9 C 18,5 km/h (3 Bft)
16.01.2009 23:44 0,8 C 92 % 1018,5 hPa 0,0 l/m 15,9 km/h (3 Bft) S-SO 160 0 min 0 W/m -0,3 C -6,5 C 15,9 km/h (3 Bft)
16.01.2009 23:49 0,9 C 92 % 1018,5 hPa 0,0 l/m 20,5 km/h (4 Bft) S 175 0 min 0 W/m -0,2 C -8,7 C 20,5 km/h (4 Bft)
16.01.2009 23:54 0,9 C 92 % 1018,5 hPa 0,0 l/m 14,1 km/h (3 Bft) S-SO 165 0 min 0 W/m -0,2 C -5,3 C 14,1 km/h (3 Bft)
_ Min-Zeit 20:44 13:34 20:14 - 01:54 - - - - 20:44 20:19 01:54
Minimum _ 0,6 C 86 % 1018,5 hPa - 4,0 km/h (1 Bft) - - - - -0,5 C -12,1 C 4,0 km/h (1 Bft)
_ Max-Zeit 13:19 04:44 00:05 00:05 12:49 - - 00:05 00:05 05:25 01:54 12:49
Maximum _ 2,9 C 98 % 1023,5 hPa 0,0 l/m 37,2 km/h
S-SO (5 Bft)
- - 0 min 0 W/m 2,2 C 1,5 C 37,2 km/h
S-SO (5 Bft)
Durchschnitt _ 1,8 C 93 % 1020,9 hPa #0,0 l/m 19,8 km/h (3 Bft) S-SO - #0 min. 0 W/m 0,7 C -6,9 C 19,8 km/h (3 Bft)
copyright by Holger Just